Time;durP1;ratioP1;P1;durP2;ratioP2;P2;SDS_P1;SDS_P2;PMS_P1;PMS_P2;Temp;Humidity;BMP_temperature;BMP_pressure;BME280_temperature;BME280_humidity;BME280_pressure;Samples;Min_cycle;Max_cycle;Signal;HPM_P1;HPM_P2
2023/01/20 00:01:32;;;;;;;5.90;4.00;;;;;;;-142.25;100.00;58004.16;5046321;28;20060;-63
2023/01/20 00:03:58;;;;;;;8.00;4.40;;;;;;;-142.25;100.00;58004.16;5037752;28;20053;-65
2023/01/20 00:06:28;;;;;;;8.30;4.83;;;;;;;-142.25;100.00;58004.16;5043866;28;20036;-64
2023/01/20 00:08:56;;;;;;;9.37;5.30;;;;;;;-142.25;100.00;58004.16;5028437;28;20075;-64
2023/01/20 00:11:22;;;;;;;7.63;4.63;;;;;;;-142.25;100.00;58004.16;5043479;28;20037;-65
2023/01/20 00:13:48;;;;;;;8.53;4.47;;;;;;;-142.25;100.00;58004.16;5013867;28;20041;-64
2023/01/20 00:16:13;;;;;;;8.70;4.47;;;;;;;-142.25;100.00;58004.16;5025260;28;20068;-63
2023/01/20 00:18:40;;;;;;;5.80;4.20;;;;;;;-142.25;100.00;58004.16;5044250;28;20124;-63
2023/01/20 00:21:11;;;;;;;9.80;4.83;;;;;;;-142.25;100.00;58004.16;5027232;28;20035;-63
2023/01/20 00:23:38;;;;;;;8.63;4.77;;;;;;;-142.25;100.00;58004.16;5045587;28;20083;-64
2023/01/20 00:26:06;;;;;;;9.63;5.03;;;;;;;-142.25;100.00;58004.16;5041515;28;20082;-63
2023/01/20 00:28:32;;;;;;;8.50;5.33;;;;;;;-142.25;100.00;58004.16;5038584;28;20097;-64
2023/01/20 00:31:08;;;;;;;7.50;4.43;;;;;;;-142.25;100.00;58004.16;5040413;28;20055;-63
2023/01/20 00:33:34;;;;;;;12.30;5.13;;;;;;;-142.25;100.00;58004.16;5040742;28;20042;-63
2023/01/20 00:36:00;;;;;;;6.93;5.00;;;;;;;-142.25;100.00;58004.16;5039518;28;20574;-64
2023/01/20 00:38:25;;;;;;;14.07;5.80;;;;;;;-142.25;100.00;58004.16;5041697;28;20087;-65
2023/01/20 00:40:54;;;;;;;10.70;4.87;;;;;;;-142.25;100.00;58004.16;5044094;28;20048;-65
2023/01/20 00:43:21;;;;;;;9.40;4.80;;;;;;;-142.25;100.00;58004.16;5045088;28;20045;-63
2023/01/20 00:45:46;;;;;;;7.93;5.27;;;;;;;-142.25;100.00;58004.16;5041909;28;20032;-65
2023/01/20 00:48:12;;;;;;;7.70;4.70;;;;;;;-142.25;100.00;58004.16;5040504;28;20557;-64
2023/01/20 00:50:37;;;;;;;7.00;4.53;;;;;;;-142.25;100.00;58004.16;5024271;28;20045;-63
2023/01/20 00:53:03;;;;;;;7.10;4.43;;;;;;;-142.25;100.00;58004.16;5040422;28;20049;-63
2023/01/20 00:55:29;;;;;;;11.33;5.53;;;;;;;-142.25;100.00;58004.16;5023460;28;20101;-63
2023/01/20 00:57:55;;;;;;;7.30;5.43;;;;;;;-142.25;100.00;58004.16;5029612;28;20041;-64
2023/01/20 01:00:20;;;;;;;7.37;4.87;;;;;;;-142.25;100.00;58004.16;5041383;28;20038;-64
2023/01/20 01:02:46;;;;;;;6.43;4.50;;;;;;;-142.25;100.00;58004.16;5023486;28;20069;-64
2023/01/20 01:05:12;;;;;;;6.37;4.57;;;;;;;-142.25;100.00;58004.16;5042788;28;20098;-64
2023/01/20 01:07:38;;;;;;;9.20;4.93;;;;;;;-142.25;100.00;58004.16;5022121;28;20037;-64
2023/01/20 01:10:04;;;;;;;6.77;5.03;;;;;;;-142.25;100.00;58004.16;5042690;28;20632;-64
2023/01/20 01:12:32;;;;;;;7.80;5.00;;;;;;;-142.25;100.00;58004.16;5044238;28;20076;-64
2023/01/20 01:14:58;;;;;;;8.93;5.53;;;;;;;-142.25;100.00;58004.16;5044327;28;20072;-65
2023/01/20 01:17:24;;;;;;;9.57;4.63;;;;;;;-142.25;100.00;58004.16;5044139;28;20046;-63
2023/01/20 01:19:53;;;;;;;6.40;4.93;;;;;;;-142.25;100.00;58004.16;5025280;28;20542;-63
2023/01/20 01:22:19;;;;;;;9.27;4.37;;;;;;;-142.25;100.00;58004.16;5047257;28;20045;-64
2023/01/20 01:24:45;;;;;;;8.57;5.27;;;;;;;-142.25;100.00;58004.16;5034976;28;20037;-63
2023/01/20 01:27:12;;;;;;;7.40;4.03;;;;;;;-142.25;100.00;58004.16;5047048;28;20072;-65
2023/01/20 01:29:38;;;;;;;7.23;4.97;;;;;;;-142.25;100.00;58004.16;5044795;28;20077;-64
2023/01/20 01:32:04;;;;;;;13.00;5.33;;;;;;;-142.25;100.00;58004.16;5047403;28;20097;-63
2023/01/20 01:34:30;;;;;;;7.47;4.80;;;;;;;-142.25;100.00;58004.16;5046960;28;20048;-63
2023/01/20 01:36:56;;;;;;;8.97;4.93;;;;;;;-142.25;100.00;58004.16;5041441;28;20523;-64
2023/01/20 01:39:22;;;;;;;11.87;5.27;;;;;;;-142.25;100.00;58004.16;5043151;28;20053;-63
2023/01/20 01:41:47;;;;;;;9.90;5.93;;;;;;;-142.25;100.00;58004.16;5038982;28;20078;-64
2023/01/20 01:44:14;;;;;;;10.17;5.57;;;;;;;-142.25;100.00;58004.16;5039959;28;20104;-63
2023/01/20 01:46:41;;;;;;;10.17;5.30;;;;;;;-142.25;100.00;58004.16;5044603;28;20049;-64
2023/01/20 01:49:15;;;;;;;9.67;6.20;;;;;;;-142.25;100.00;58004.16;5040283;28;20131;-63
2023/01/20 01:51:46;;;;;;;11.77;5.77;;;;;;;-142.25;100.00;58004.16;5038398;28;20146;-64
2023/01/20 01:54:19;;;;;;;9.47;5.33;;;;;;;-142.25;100.00;58004.16;5032110;28;20038;-64
2023/01/20 01:56:46;;;;;;;6.73;5.03;;;;;;;-142.25;100.00;58004.16;5026757;28;20649;-63
2023/01/20 01:59:13;;;;;;;11.67;4.93;;;;;;;-142.25;100.00;58004.16;5040211;28;20037;-63
2023/01/20 02:01:44;;;;;;;8.70;5.10;;;;;;;-142.25;100.00;58004.16;5045016;28;20062;-63
2023/01/20 02:04:14;;;;;;;7.57;5.23;;;;;;;-142.25;100.00;58004.16;5042610;28;20059;-62
2023/01/20 02:06:44;;;;;;;6.93;4.57;;;;;;;-142.25;100.00;58004.16;5040523;28;20510;-64
2023/01/20 02:09:10;;;;;;;9.80;4.83;;;;;;;-142.25;100.00;58004.16;5042278;28;20070;-63
2023/01/20 02:11:42;;;;;;;7.90;5.73;;;;;;;-142.25;100.00;58004.16;5044179;28;20189;-64
2023/01/20 02:14:08;;;;;;;7.30;5.23;;;;;;;-142.25;100.00;58004.16;5042730;28;20044;-64
2023/01/20 02:16:43;;;;;;;8.27;5.33;;;;;;;-142.25;100.00;58004.16;5027544;28;20446;-63
2023/01/20 02:19:24;;;;;;;9.43;6.00;;;;;;;-142.25;100.00;58004.16;5043313;28;20049;-64
2023/01/20 02:22:13;;;;;;;7.80;4.53;;;;;;;-142.25;100.00;58004.16;5044857;28;20071;-63
2023/01/20 02:25:09;;;;;;;7.37;4.30;;;;;;;-142.25;100.00;58004.16;5044268;28;20052;-66
2023/01/20 02:28:12;;;;;;;9.23;5.20;;;;;;;-142.25;100.00;58004.16;5029567;28;20124;-64
2023/01/20 02:31:02;;;;;;;6.70;4.83;;;;;;;-142.25;100.00;58004.16;5045144;28;20049;-63
2023/01/20 02:33:32;;;;;;;6.60;5.00;;;;;;;-142.25;100.00;58004.16;5051354;28;20646;-64
2023/01/20 02:36:18;;;;;;;6.20;4.50;;;;;;;-142.25;100.00;58004.16;5044073;28;20040;-64
2023/01/20 02:38:46;;;;;;;;;;;;;;;-142.25;100.00;58004.16;5044713;28;20048;-63
2023/01/20 02:41:37;;;;;;;7.37;4.70;;;;;;;-142.25;100.00;58004.16;5043873;28;19956;-64
2023/01/20 02:44:19;;;;;;;7.20;4.80;;;;;;;-142.25;100.00;58004.16;5047552;28;20044;-64
2023/01/20 02:46:56;;;;;;;6.77;4.20;;;;;;;-142.25;100.00;58004.16;5035362;28;20446;-68
2023/01/20 02:49:36;;;;;;;8.60;5.17;;;;;;;-142.25;100.00;58004.16;5052076;28;20063;-66
2023/01/20 02:52:14;;;;;;;7.43;4.70;;;;;;;-142.25;100.00;58004.16;5048869;28;20037;-64
2023/01/20 02:54:43;;;;;;;6.70;5.17;;;;;;;-142.25;100.00;58004.16;5033416;28;20095;-65
2023/01/20 02:57:13;;;;;;;7.30;5.20;;;;;;;-142.25;100.00;58004.16;5031601;28;20492;-64
2023/01/20 02:59:45;;;;;;;10.20;5.00;;;;;;;-142.25;100.00;58004.16;5047845;28;20073;-65
2023/01/20 03:02:16;;;;;;;7.37;4.97;;;;;;;-142.25;100.00;58004.16;5045360;28;20816;-65
2023/01/20 03:04:51;;;;;;;5.43;4.00;;;;;;;-142.25;100.00;58004.16;5049576;28;20052;-65
2023/01/20 03:07:21;;;;;;;;;;;;;;;-142.25;100.00;58004.16;5049475;28;20032;-65
2023/01/20 03:09:50;;;;;;;9.83;4.87;;;;;;;-142.25;100.00;58004.16;5044390;28;20030;-64
2023/01/20 03:12:41;;;;;;;9.63;4.80;;;;;;;-142.25;100.00;58004.16;5044639;28;20352;-64
2023/01/20 03:15:08;;;;;;;8.50;5.17;;;;;;;-142.25;100.00;58004.16;5044606;28;20083;-67
2023/01/20 03:17:34;;;;;;;8.47;5.30;;;;;;;-142.25;100.00;58004.16;5041914;28;20384;-65
2023/01/20 03:20:00;;;;;;;9.53;5.57;;;;;;;-142.25;100.00;58004.16;5040984;28;20395;-65
2023/01/20 03:22:29;;;;;;;6.87;4.47;;;;;;;-142.25;100.00;58004.16;5039543;28;20037;-65
2023/01/20 03:24:57;;;;;;;9.23;4.93;;;;;;;-142.25;100.00;58004.16;5029114;28;20068;-66
2023/01/20 03:27:24;;;;;;;8.63;4.90;;;;;;;-142.25;100.00;58004.16;5044023;28;20411;-64
2023/01/20 03:29:49;;;;;;;8.17;5.13;;;;;;;-142.25;100.00;58004.16;5040868;28;20060;-65
2023/01/20 03:32:17;;;;;;;10.47;5.37;;;;;;;-142.25;100.00;58004.16;5030681;28;20048;-64
2023/01/20 03:34:43;;;;;;;12.57;5.73;;;;;;;-142.25;100.00;58004.16;5042219;28;20140;-64
2023/01/20 03:37:11;;;;;;;8.40;5.00;;;;;;;-142.25;100.00;58004.16;5041868;28;20033;-64
2023/01/20 03:39:38;;;;;;;8.73;4.87;;;;;;;-142.25;100.00;58004.16;5048349;28;20562;-64
2023/01/20 03:42:29;;;;;;;9.03;5.57;;;;;;;-142.25;100.00;58004.16;5046440;28;20707;-64
2023/01/20 03:45:24;;;;;;;7.00;4.57;;;;;;;-142.25;100.00;58004.16;5036922;28;20067;-63
2023/01/20 03:48:02;;;;;;;7.90;5.10;;;;;;;-142.25;100.00;58004.16;5048804;28;20040;-64
2023/01/20 03:50:38;;;;;;;10.17;5.20;;;;;;;-142.25;100.00;58004.16;5036007;28;20066;-63
2023/01/20 03:53:32;;;;;;;10.37;5.57;;;;;;;-142.25;100.00;58004.16;5031368;28;20036;-64
2023/01/20 03:56:16;;;;;;;8.57;5.97;;;;;;;-142.25;100.00;58004.16;5046758;28;20078;-64
2023/01/20 03:58:46;;;;;;;7.60;5.60;;;;;;;-142.25;100.00;58004.16;5043268;28;20058;-64
2023/01/20 04:01:14;;;;;;;13.73;5.30;;;;;;;-142.25;100.00;58004.16;5043789;28;20581;-66
2023/01/20 04:03:44;;;;;;;8.97;4.90;;;;;;;-142.25;100.00;58004.16;5042788;28;20101;-64
2023/01/20 04:06:13;;;;;;;5.90;4.40;;;;;;;-142.25;100.00;58004.16;5047695;28;20037;-64
2023/01/20 04:08:45;;;;;;;9.17;5.00;;;;;;;-142.25;100.00;58004.16;5021596;28;20068;-71
2023/01/20 04:11:11;;;;;;;10.30;5.57;;;;;;;-142.25;100.00;58004.16;5044002;28;20047;-64
2023/01/20 04:13:37;;;;;;;8.80;5.13;;;;;;;-142.25;100.00;58004.16;5042051;28;20487;-65
2023/01/20 04:16:09;;;;;;;11.30;4.97;;;;;;;-142.25;100.00;58004.16;5042559;28;20124;-64
2023/01/20 04:18:39;;;;;;;9.83;4.80;;;;;;;-142.25;100.00;58004.16;5040261;28;20126;-62
2023/01/20 04:21:05;;;;;;;6.97;4.97;;;;;;;-142.25;100.00;58004.16;5040317;28;20049;-62
2023/01/20 04:23:39;;;;;;;8.73;5.20;;;;;;;-142.25;100.00;58004.16;5040185;28;20049;-67
2023/01/20 04:26:20;;;;;;;9.27;5.10;;;;;;;-142.25;100.00;58004.16;4989530;28;20060;-69
2023/01/20 04:28:45;;;;;;;6.87;5.77;;;;;;;-142.25;100.00;58004.16;5042448;28;20591;-64
2023/01/20 04:31:13;;;;;;;7.80;4.53;;;;;;;-142.25;100.00;58004.16;5041410;28;20520;-65
2023/01/20 04:33:38;;;;;;;7.57;5.13;;;;;;;-142.25;100.00;58004.16;5043975;28;20114;-63
2023/01/20 04:36:04;;;;;;;7.53;5.07;;;;;;;-142.25;100.00;58004.16;5044852;28;20065;-64
2023/01/20 04:38:30;;;;;;;11.17;5.37;;;;;;;-142.25;100.00;58004.16;5041185;28;20045;-65
2023/01/20 04:40:55;;;;;;;7.50;4.40;;;;;;;-142.25;100.00;58004.16;5035797;28;20478;-65
2023/01/20 04:43:22;;;;;;;8.50;5.23;;;;;;;-142.25;100.00;58004.16;5021820;28;20440;-66
2023/01/20 04:45:47;;;;;;;9.67;5.53;;;;;;;-142.25;100.00;58004.16;5023630;28;20032;-66
2023/01/20 04:48:13;;;;;;;11.37;4.97;;;;;;;-142.25;100.00;58004.16;5040631;28;20044;-66
2023/01/20 04:50:39;;;;;;;7.97;4.90;;;;;;;-142.25;100.00;58004.16;5042492;28;20049;-65
2023/01/20 04:53:06;;;;;;;10.13;5.90;;;;;;;-142.25;100.00;58004.16;5038128;28;20088;-66
2023/01/20 04:55:32;;;;;;;10.53;6.00;;;;;;;-142.25;100.00;58004.16;5038058;28;20064;-65
2023/01/20 04:57:58;;;;;;;9.37;5.57;;;;;;;-142.25;100.00;58004.16;5037963;28;20128;-69
2023/01/20 05:00:24;;;;;;;8.87;5.27;;;;;;;-142.25;100.00;58004.16;5038861;28;20041;-66
2023/01/20 05:02:49;;;;;;;12.37;5.87;;;;;;;-142.25;100.00;58004.16;5037890;28;20033;-66
2023/01/20 05:05:15;;;;;;;11.93;5.70;;;;;;;-142.25;100.00;58004.16;5040585;28;20051;-66
2023/01/20 05:07:41;;;;;;;10.53;6.00;;;;;;;-142.25;100.00;58004.16;5041219;28;20048;-66
2023/01/20 05:10:07;;;;;;;9.37;5.30;;;;;;;-142.25;100.00;58004.16;5041190;28;20485;-66
2023/01/20 05:12:32;;;;;;;9.57;6.43;;;;;;;-142.25;100.00;58004.16;5041123;28;20820;-66
2023/01/20 05:14:58;;;;;;;13.93;6.57;;;;;;;-142.25;100.00;58004.16;5040437;28;20041;-65
2023/01/20 05:17:24;;;;;;;6.83;5.47;;;;;;;-142.25;100.00;58004.16;5039460;28;20045;-66
2023/01/20 05:19:49;;;;;;;10.53;5.07;;;;;;;-142.25;100.00;58004.16;4979000;28;20061;-65
2023/01/20 05:22:15;;;;;;;8.83;6.07;;;;;;;-142.25;100.00;58004.16;4990871;28;20046;-65
2023/01/20 05:24:41;;;;;;;8.60;5.77;;;;;;;-142.25;100.00;58004.16;4988772;28;20050;-66
2023/01/20 05:27:07;;;;;;;9.03;4.70;;;;;;;-142.25;100.00;58004.16;4990685;28;20037;-66
2023/01/20 05:29:32;;;;;;;7.37;4.97;;;;;;;-142.25;100.00;58004.16;4992423;28;20141;-67
2023/01/20 05:31:58;;;;;;;12.73;6.63;;;;;;;-142.25;100.00;58004.16;4990805;28;20076;-66
2023/01/20 05:34:23;;;;;;;12.53;6.57;;;;;;;-142.25;100.00;58004.16;4999286;28;20076;-67
2023/01/20 05:36:53;;;;;;;10.00;7.37;;;;;;;-142.25;100.00;58004.16;4990554;28;20034;-66
2023/01/20 05:39:18;;;;;;;10.33;6.03;;;;;;;-142.25;100.00;58004.16;4988088;28;20047;-66
2023/01/20 05:41:53;;;;;;;9.90;5.70;;;;;;;-142.25;100.00;58004.16;4991998;28;20529;-67
2023/01/20 05:44:19;;;;;;;14.38;7.60;;;;;;;-142.25;100.00;58004.16;4988954;28;20090;-67
2023/01/20 05:46:44;;;;;;;9.73;5.77;;;;;;;-142.25;100.00;58004.16;4989257;28;20125;-66
2023/01/20 05:49:11;;;;;;;12.53;7.13;;;;;;;-142.25;100.00;58004.16;4991559;28;20081;-65
2023/01/20 05:51:37;;;;;;;8.93;6.07;;;;;;;-142.25;100.00;58004.16;4991485;28;20710;-72
2023/01/20 05:54:03;;;;;;;10.03;6.30;;;;;;;-142.25;100.00;58004.16;4996124;28;20124;-70
2023/01/20 05:56:28;;;;;;;12.60;6.50;;;;;;;-142.25;100.00;58004.16;4995353;28;20508;-65
2023/01/20 05:58:55;;;;;;;11.17;6.73;;;;;;;-142.25;100.00;58004.16;4995398;28;20038;-70
2023/01/20 06:01:21;;;;;;;11.07;5.90;;;;;;;-142.25;100.00;58004.16;4993235;28;20501;-68
2023/01/20 06:03:47;;;;;;;14.17;7.93;;;;;;;-142.25;100.00;58004.16;4991648;28;20030;-66
2023/01/20 06:06:14;;;;;;;10.17;6.07;;;;;;;-142.25;100.00;58004.16;4991002;28;20328;-67
2023/01/20 06:08:40;;;;;;;10.13;6.00;;;;;;;-142.25;100.00;58004.16;4992498;28;20140;-65
2023/01/20 06:11:06;;;;;;;10.60;6.10;;;;;;;-142.25;100.00;58004.16;4995279;28;20050;-64
2023/01/20 06:13:31;;;;;;;10.13;6.83;;;;;;;-142.25;100.00;58004.16;4989805;28;20050;-68
2023/01/20 06:15:57;;;;;;;8.83;6.10;;;;;;;-142.25;100.00;58004.16;4989714;28;20100;-68
2023/01/20 06:18:23;;;;;;;7.27;5.23;;;;;;;-142.25;100.00;58004.16;4999637;28;20124;-68
2023/01/20 06:20:49;;;;;;;10.33;5.97;;;;;;;-142.25;100.00;58004.16;5028305;28;20064;-68
2023/01/20 06:23:16;;;;;;;9.27;5.67;;;;;;;-142.25;100.00;58004.16;5030194;28;20049;-69
2023/01/20 06:25:41;;;;;;;8.33;4.60;;;;;;;-142.25;100.00;58004.16;5009270;28;20415;-67
2023/01/20 06:28:07;;;;;;;10.77;5.93;;;;;;;-142.25;100.00;58004.16;5025202;28;20665;-68
2023/01/20 06:30:33;;;;;;;9.00;5.30;;;;;;;-142.25;100.00;58004.16;5022955;28;20052;-68
2023/01/20 06:32:59;;;;;;;10.63;5.90;;;;;;;-142.25;100.00;58004.16;5023814;28;20038;-67
2023/01/20 06:35:25;;;;;;;11.40;6.83;;;;;;;-142.25;100.00;58004.16;5028110;28;20488;-68
2023/01/20 06:37:51;;;;;;;8.97;5.67;;;;;;;-142.25;100.00;58004.16;5023505;28;20037;-68
2023/01/20 06:40:18;;;;;;;8.53;5.40;;;;;;;-142.25;100.00;58004.16;5019032;28;20079;-68
2023/01/20 06:42:43;;;;;;;9.37;5.67;;;;;;;-142.25;100.00;58004.16;5021714;28;20584;-67
2023/01/20 06:45:09;;;;;;;9.83;6.37;;;;;;;-142.25;100.00;58004.16;5024819;28;20072;-65
2023/01/20 06:47:35;;;;;;;12.97;7.33;;;;;;;-142.25;100.00;58004.16;5021290;28;20044;-67
2023/01/20 06:50:01;;;;;;;11.20;6.17;;;;;;;-142.25;100.00;58004.16;5021060;28;20049;-67
2023/01/20 06:52:26;;;;;;;11.10;6.20;;;;;;;-142.25;100.00;58004.16;5025939;28;20480;-70
2023/01/20 06:54:52;;;;;;;8.07;6.40;;;;;;;-142.25;100.00;58004.16;5016658;28;20084;-69
2023/01/20 06:57:18;;;;;;;8.77;6.17;;;;;;;-142.25;100.00;58004.16;5022221;28;20125;-71
2023/01/20 06:59:44;;;;;;;8.50;5.47;;;;;;;-142.25;100.00;58004.16;5018896;28;20505;-69
2023/01/20 07:02:11;;;;;;;11.47;6.37;;;;;;;-142.25;100.00;58004.16;5023659;28;20053;-69
2023/01/20 07:04:37;;;;;;;8.50;5.20;;;;;;;-142.25;100.00;58004.16;5026763;28;20048;-69
2023/01/20 07:07:02;;;;;;;7.27;4.70;;;;;;;-142.25;100.00;58004.16;5023640;28;20052;-69
2023/01/20 07:09:28;;;;;;;9.47;6.30;;;;;;;-142.25;100.00;58004.16;5022572;28;20480;-69
2023/01/20 07:11:53;;;;;;;10.97;6.07;;;;;;;-142.25;100.00;58004.16;5014175;28;20535;-69
2023/01/20 07:14:19;;;;;;;8.90;5.73;;;;;;;-142.25;100.00;58004.16;5016868;28;20044;-69
2023/01/20 07:16:45;;;;;;;11.27;6.37;;;;;;;-142.25;100.00;58004.16;5022820;28;20045;-69
2023/01/20 07:19:11;;;;;;;9.90;6.67;;;;;;;-142.25;100.00;58004.16;5030892;28;20059;-68
2023/01/20 07:21:37;;;;;;;8.37;5.20;;;;;;;-142.25;100.00;58004.16;5041427;28;20045;-69
2023/01/20 07:24:03;;;;;;;9.33;5.13;;;;;;;-142.25;100.00;58004.16;5043744;28;20283;-69
2023/01/20 07:26:29;;;;;;;13.43;6.67;;;;;;;-142.25;100.00;58004.16;5042459;28;20475;-69
2023/01/20 07:28:57;;;;;;;9.80;5.87;;;;;;;-142.25;100.00;58004.16;5040794;28;20057;-68
2023/01/20 07:31:25;;;;;;;10.40;5.10;;;;;;;-142.25;100.00;58004.16;5041816;28;20119;-69
2023/01/20 07:33:52;;;;;;;9.83;5.53;;;;;;;-142.25;100.00;58004.16;5040280;28;20120;-68
2023/01/20 07:36:18;;;;;;;11.93;5.97;;;;;;;-142.25;100.00;58004.16;5042032;28;20052;-70
2023/01/20 07:38:49;;;;;;;11.53;6.27;;;;;;;-142.25;100.00;58004.16;5040689;28;20487;-71
2023/01/20 07:41:16;;;;;;;9.33;5.37;;;;;;;-142.25;100.00;58004.16;5039457;28;20049;-69
2023/01/20 07:43:47;;;;;;;10.10;5.77;;;;;;;-142.25;100.00;58004.16;5042597;28;20041;-70
2023/01/20 07:46:13;;;;;;;14.03;6.80;;;;;;;-142.25;100.00;58004.16;5043408;28;20072;-68
2023/01/20 07:48:39;;;;;;;30.13;13.20;;;;;;;-142.25;100.00;58004.16;5044277;28;20152;-72
2023/01/20 07:51:08;;;;;;;15.43;8.47;;;;;;;-142.25;100.00;58004.16;5045201;28;20041;-68
2023/01/20 07:53:39;;;;;;;18.67;9.33;;;;;;;-142.25;100.00;58004.16;5044101;28;20450;-68
2023/01/20 07:56:10;;;;;;;14.27;9.13;;;;;;;-142.25;100.00;58004.16;5039379;28;20048;-69
2023/01/20 07:58:37;;;;;;;13.00;8.10;;;;;;;-142.25;100.00;58004.16;5044584;28;20041;-69
2023/01/20 08:01:13;;;;;;;14.87;7.30;;;;;;;-142.25;100.00;58004.16;5031263;28;20052;-69
2023/01/20 08:03:39;;;;;;;13.27;7.07;;;;;;;-142.25;100.00;58004.16;5043037;28;20041;-71
2023/01/20 08:06:06;;;;;;;11.30;6.90;;;;;;;-142.25;100.00;58004.16;5041944;28;20041;-69
2023/01/20 08:08:32;;;;;;;12.40;6.57;;;;;;;-142.25;100.00;58004.16;5042400;28;20064;-67
2023/01/20 08:11:00;;;;;;;9.37;6.10;;;;;;;-142.25;100.00;58004.16;5027803;28;20048;-70
2023/01/20 08:13:26;;;;;;;9.10;5.87;;;;;;;-142.25;100.00;58004.16;5025120;28;20044;-70
2023/01/20 08:15:52;;;;;;;8.23;5.83;;;;;;;-142.25;100.00;58004.16;5040947;28;20045;-70
2023/01/20 08:18:17;;;;;;;14.13;7.77;;;;;;;-142.25;100.00;58004.16;5039306;28;20050;-69
2023/01/20 08:20:43;;;;;;;27.03;11.97;;;;;;;-142.25;100.00;58004.16;5017374;28;20068;-70
2023/01/20 08:23:09;;;;;;;30.47;15.47;;;;;;;-142.25;100.00;58004.16;5042488;28;20045;-71
2023/01/20 08:25:34;;;;;;;31.43;18.27;;;;;;;-142.25;100.00;58004.16;5013029;28;20535;-68
2023/01/20 08:28:00;;;;;;;14.80;9.50;;;;;;;-142.25;100.00;58004.16;5041838;28;20040;-70
2023/01/20 08:30:25;;;;;;;17.13;8.33;;;;;;;-142.25;100.00;58004.16;5038919;28;20676;-71
2023/01/20 08:32:51;;;;;;;13.63;8.33;;;;;;;-142.25;100.00;58004.16;5036972;28;20724;-71
2023/01/20 08:35:16;;;;;;;9.30;5.87;;;;;;;-142.25;100.00;58004.16;5036258;28;20047;-69
2023/01/20 08:37:42;;;;;;;12.77;7.10;;;;;;;-142.25;100.00;58004.16;5041618;28;20506;-71
2023/01/20 08:40:09;;;;;;;10.53;6.97;;;;;;;-142.25;100.00;58004.16;5024597;28;20076;-69
2023/01/20 08:42:36;;;;;;;7.83;5.47;;;;;;;-142.25;100.00;58004.16;5043505;28;20033;-69
2023/01/20 08:45:05;;;;;;;10.37;5.60;;;;;;;-142.25;100.00;58004.16;5027339;28;20057;-71
2023/01/20 08:47:30;;;;;;;9.07;5.73;;;;;;;-142.25;100.00;58004.16;5040471;28;20119;-69
2023/01/20 08:49:56;;;;;;;10.13;5.80;;;;;;;-142.25;100.00;58004.16;5041795;28;20559;-70
2023/01/20 08:52:21;;;;;;;9.37;6.03;;;;;;;-142.25;100.00;58004.16;5040272;28;20036;-69
2023/01/20 08:54:50;;;;;;;6.93;4.73;;;;;;;-142.25;100.00;58004.16;5026333;28;20656;-70
2023/01/20 08:57:16;;;;;;;12.10;5.80;;;;;;;-142.25;100.00;58004.16;5035133;28;20083;-70
2023/01/20 08:59:43;;;;;;;6.87;4.40;;;;;;;-142.25;100.00;58004.16;5041175;28;20056;-70
2023/01/20 09:02:09;;;;;;;8.00;4.50;;;;;;;-142.25;100.00;58004.16;5042682;28;20045;-70
2023/01/20 09:04:36;;;;;;;7.33;5.23;;;;;;;-142.25;100.00;58004.16;5041402;28;20125;-69
2023/01/20 09:07:02;;;;;;;8.47;5.03;;;;;;;-142.25;100.00;58004.16;5042826;28;20051;-70
2023/01/20 09:09:28;;;;;;;9.67;5.00;;;;;;;-142.25;100.00;58004.16;5041070;28;20076;-69
2023/01/20 09:11:54;;;;;;;9.23;5.23;;;;;;;-142.25;100.00;58004.16;5019318;28;20403;-68
2023/01/20 09:14:23;;;;;;;8.10;4.93;;;;;;;-142.25;100.00;58004.16;5023803;28;20052;-69
2023/01/20 09:16:48;;;;;;;10.70;5.40;;;;;;;-142.25;100.00;58004.16;5039715;28;20049;-70
2023/01/20 09:19:14;;;;;;;6.60;4.67;;;;;;;-142.25;100.00;58004.16;5040002;28;20084;-69
2023/01/20 09:21:41;;;;;;;8.83;4.50;;;;;;;-142.25;100.00;58004.16;5041383;28;20037;-69
2023/01/20 09:24:07;;;;;;;8.20;4.53;;;;;;;-142.25;100.00;58004.16;5025068;28;20156;-69
2023/01/20 09:26:37;;;;;;;10.37;6.70;;;;;;;-142.25;100.00;58004.16;5042511;28;20064;-70
2023/01/20 09:29:07;;;;;;;9.13;5.43;;;;;;;-142.25;100.00;58004.16;5040116;28;20104;-68
2023/01/20 09:31:34;;;;;;;8.87;4.90;;;;;;;-142.25;100.00;58004.16;5040408;28;20316;-70
2023/01/20 09:34:01;;;;;;;7.70;5.37;;;;;;;-142.25;100.00;58004.16;5045114;28;20040;-69
2023/01/20 09:36:29;;;;;;;8.70;4.53;;;;;;;-142.25;100.00;58004.16;5043049;28;20041;-69
2023/01/20 09:44:34;;;;;;;7.33;4.47;;;;;;;-142.25;100.00;58004.16;5042526;28;20279;-70
2023/01/20 09:47:18;;;;;;;6.17;4.37;;;;;;;-142.25;100.00;58004.16;5039718;28;20621;-71
2023/01/20 09:53:04;;;;;;;5.07;3.95;;;;;;;-142.25;100.00;58004.16;5046026;28;20045;-69
2023/01/20 09:55:50;;;;;;;7.37;5.77;;;;;;;-142.25;100.00;58004.16;5045821;28;20098;-70
2023/01/20 09:58:15;;;;;;;8.67;4.43;;;;;;;-142.25;100.00;58004.16;5046088;28;20360;-69
2023/01/20 10:00:48;;;;;;;7.13;5.10;;;;;;;-142.25;100.00;58004.16;5042416;28;20067;-69
2023/01/20 10:03:36;;;;;;;6.90;3.63;;;;;;;-142.25;100.00;58004.16;5044255;28;20388;-71
2023/01/20 10:06:09;;;;;;;9.83;4.70;;;;;;;-142.25;100.00;58004.16;5045450;28;20049;-71
2023/01/20 10:09:05;;;;;;;7.67;4.13;;;;;;;-142.25;100.00;58004.16;5040436;28;20075;-70
2023/01/20 10:11:39;;;;;;;7.43;4.00;;;;;;;-142.25;100.00;58004.16;5038719;28;20374;-69
2023/01/20 10:14:17;;;;;;;8.35;4.97;;;;;;;-142.25;100.00;58004.16;5032319;28;20041;-69
2023/01/20 10:16:54;;;;;;;4.37;3.70;;;;;;;-142.25;100.00;58004.16;5047554;28;20601;-69
2023/01/20 10:19:35;;;;;;;8.40;4.03;;;;;;;-142.25;100.00;58004.16;5048613;28;20045;-68
2023/01/20 10:22:21;;;;;;;5.67;4.43;;;;;;;-142.25;100.00;58004.16;5044142;28;20060;-69
2023/01/20 10:24:56;;;;;;;9.00;5.10;;;;;;;-142.25;100.00;58004.16;5040332;28;20087;-67
2023/01/20 10:27:27;;;;;;;7.90;4.47;;;;;;;-142.25;100.00;58004.16;5031350;28;20141;-66
2023/01/20 10:30:02;;;;;;;7.17;5.10;;;;;;;-142.25;100.00;58004.16;5039296;28;20242;-66
2023/01/20 10:32:44;;;;;;;9.40;6.17;;;;;;;-142.25;100.00;58004.16;5037557;28;20048;-65
2023/01/20 10:35:17;;;;;;;12.03;6.07;;;;;;;-142.25;100.00;58004.16;5042198;28;20049;-66
2023/01/20 10:37:43;;;;;;;6.97;4.90;;;;;;;-142.25;100.00;58004.16;5020559;28;20143;-68
2023/01/20 10:40:17;;;;;;;7.00;3.87;;;;;;;-142.25;100.00;58004.16;5024313;28;20110;-69
2023/01/20 10:42:48;;;;;;;9.77;5.55;;;;;;;-142.25;100.00;58004.16;5043989;28;20056;-64
2023/01/20 10:45:43;;;;;;;3.93;3.50;;;;;;;-142.25;100.00;58004.16;5046042;28;20044;-66
2023/01/20 10:48:09;;;;;;;9.50;4.80;;;;;;;-142.25;100.00;58004.16;5044518;28;20068;-67
2023/01/20 10:50:41;;;;;;;7.47;5.27;;;;;;;-142.25;100.00;58004.16;5046407;28;20809;-67
2023/01/20 10:53:25;;;;;;;6.80;4.40;;;;;;;-142.25;100.00;58004.16;5042746;28;20045;-67
2023/01/20 10:56:17;;;;;;;9.03;5.03;;;;;;;-142.25;100.00;58004.16;5043893;28;20052;-66
2023/01/20 10:58:44;;;;;;;8.73;4.30;;;;;;;-142.25;100.00;58004.16;5041631;28;20483;-69
2023/01/20 11:01:13;;;;;;;7.40;4.07;;;;;;;-142.25;100.00;58004.16;5044990;28;20040;-65
2023/01/20 11:03:42;;;;;;;10.73;5.63;;;;;;;-142.25;100.00;58004.16;5041379;28;20133;-67
2023/01/20 11:06:15;;;;;;;8.20;5.77;;;;;;;-142.25;100.00;58004.16;5042554;28;20040;-65
2023/01/20 11:08:41;;;;;;;4.80;4.03;;;;;;;-142.25;100.00;58004.16;5043255;28;20105;-66
2023/01/20 11:11:17;;;;;;;7.03;4.97;;;;;;;-142.25;100.00;58004.16;5042020;28;20529;-68
2023/01/20 11:13:43;;;;;;;7.23;5.37;;;;;;;-142.25;100.00;58004.16;5041379;28;20128;-68
2023/01/20 11:16:17;;;;;;;8.77;6.47;;;;;;;-142.25;100.00;58004.16;5040310;28;20498;-70
2023/01/20 11:18:59;;;;;;;172.37;93.43;;;;;;;-142.25;100.00;58004.16;5040068;28;20599;-67
2023/01/20 11:21:27;;;;;;;9.87;7.70;;;;;;;-142.25;100.00;58004.16;5045698;28;20040;-68
2023/01/20 11:23:55;;;;;;;14.07;9.03;;;;;;;-142.25;100.00;58004.16;5044704;28;20041;-64
2023/01/20 11:26:32;;;;;;;9.27;7.17;;;;;;;-142.25;100.00;58004.16;5039919;28;20105;-68